Time;durP1;ratioP1;P1;durP2;ratioP2;P2;SDS_P1;SDS_P2;PMS_P1;PMS_P2;Temp;Humidity;BMP_temperature;BMP_pressure;BME280_temperature;BME280_humidity;BME280_pressure;Samples;Min_cycle;Max_cycle;Signal;HPM_P1;HPM_P2
2022/06/30 00:00:32;;;;;;;5.60;2.97;;;19.70;98.00;;;;;;5012862;28;20816;-70
2022/06/30 00:03:00;;;;;;;3.90;2.53;;;19.50;98.00;;;;;;5014700;28;20464;-69
2022/06/30 00:05:29;;;;;;;5.53;2.97;;;19.50;98.00;;;;;;5014768;28;20460;-70
2022/06/30 00:07:56;;;;;;;3.77;2.70;;;19.50;98.00;;;;;;5014672;28;20997;-70
2022/06/30 00:10:23;;;;;;;4.07;2.60;;;19.50;98.00;;;;;;5014616;28;20463;-69
2022/06/30 00:12:50;;;;;;;4.83;3.30;;;19.40;98.00;;;;;;5014458;28;20498;-70
2022/06/30 00:15:17;;;;;;;4.60;2.90;;;19.60;98.00;;;;;;5014509;28;20463;-70
2022/06/30 00:17:45;;;;;;;8.60;2.70;;;19.60;98.00;;;;;;5014420;28;20459;-70
2022/06/30 00:20:12;;;;;;;3.70;2.83;;;19.50;98.00;;;;;;5014509;28;20459;-70
2022/06/30 00:22:41;;;;;;;6.07;3.07;;;19.40;98.00;;;;;;4996986;28;20799;-70
2022/06/30 00:25:08;;;;;;;3.60;2.80;;;19.30;98.00;;;;;;5014485;28;20551;-70
2022/06/30 00:27:35;;;;;;;3.30;2.53;;;19.30;98.00;;;;;;5014547;28;20452;-70
2022/06/30 00:30:03;;;;;;;4.33;2.97;;;19.30;98.00;;;;;;5014392;28;20494;-70
2022/06/30 00:32:30;;;;;;;5.33;2.70;;;19.30;98.00;;;;;;5014443;28;20483;-70
2022/06/30 00:34:58;;;;;;;4.50;2.80;;;19.40;98.00;;;;;;5014429;28;20463;-70
2022/06/30 00:37:25;;;;;;;4.07;2.73;;;19.30;98.00;;;;;;5014291;28;21043;-70
2022/06/30 00:39:53;;;;;;;5.20;3.07;;;19.30;98.00;;;;;;4996762;28;20459;-70
2022/06/30 00:42:21;;;;;;;5.23;2.77;;;19.40;98.00;;;;;;5013957;28;20972;-70
2022/06/30 00:44:49;;;;;;;4.20;2.70;;;19.40;98.00;;;;;;5013945;28;20958;-69
2022/06/30 00:47:16;;;;;;;3.60;2.70;;;19.30;98.00;;;;;;5013861;28;20545;-70
2022/06/30 00:49:43;;;;;;;3.80;2.43;;;19.30;98.00;;;;;;4996674;28;20455;-70
2022/06/30 00:52:12;;;;;;;3.87;2.80;;;19.30;98.00;;;;;;5013743;28;20483;-70
2022/06/30 00:54:43;;;;;;;4.17;2.83;;;19.30;98.00;;;;;;5013746;28;20467;-70
2022/06/30 00:57:12;;;;;;;5.43;3.03;;;19.30;98.00;;;;;;5013727;28;20467;-70
2022/06/30 00:59:41;;;;;;;3.50;2.60;;;19.30;98.00;;;;;;5013664;28;20472;-70
2022/06/30 01:02:09;;;;;;;3.70;2.80;;;19.40;98.00;;;;;;5013388;28;20950;-70
2022/06/30 01:04:41;;;;;;;3.63;2.57;;;19.30;98.00;;;;;;5013771;28;20464;-70
2022/06/30 01:07:09;;;;;;;3.17;2.50;;;19.20;98.00;;;;;;5013377;28;20463;-70
2022/06/30 01:15:07;;;;;;;8.20;2.77;;;19.00;98.00;;;;;;5013689;28;20591;-70
2022/06/30 01:17:34;;;;;;;4.40;3.10;;;19.00;98.00;;;;;;5013387;28;20816;-70
2022/06/30 01:20:01;;;;;;;5.40;3.10;;;19.10;98.00;;;;;;5013338;28;20462;-70
2022/06/30 01:22:31;;;;;;;6.80;3.43;;;19.30;98.00;;;;;;4995606;28;20467;-70
2022/06/30 01:24:58;;;;;;;4.27;3.07;;;19.10;98.00;;;;;;5013315;28;20460;-70
2022/06/30 01:27:25;;;;;;;4.20;2.87;;;19.00;98.00;;;;;;5013446;28;20522;-70
2022/06/30 01:29:53;;;;;;;5.60;2.97;;;18.90;98.00;;;;;;5013129;28;20455;-70
2022/06/30 01:32:20;;;;;;;4.50;3.07;;;18.80;98.00;;;;;;5013115;28;20483;-70
2022/06/30 01:34:47;;;;;;;5.37;2.80;;;18.80;98.00;;;;;;5013320;28;20458;-70
2022/06/30 01:37:15;;;;;;;5.20;2.87;;;18.70;98.00;;;;;;5013237;28;20456;-70
2022/06/30 01:39:44;;;;;;;4.00;2.97;;;18.70;98.00;;;;;;5012906;28;20502;-70
2022/06/30 01:42:12;;;;;;;4.53;2.70;;;18.70;98.00;;;;;;5013088;28;20554;-70
2022/06/30 01:44:39;;;;;;;6.57;2.83;;;18.60;98.00;;;;;;5012719;28;20448;-70
2022/06/30 01:47:06;;;;;;;6.23;3.63;;;18.60;98.00;;;;;;5012665;28;20466;-70
2022/06/30 01:49:33;;;;;;;4.83;3.10;;;18.60;98.00;;;;;;5012864;28;20812;-70
2022/06/30 01:52:00;;;;;;;4.27;2.93;;;18.70;98.00;;;;;;5012721;28;20452;-70
2022/06/30 01:54:29;;;;;;;3.50;2.50;;;18.60;98.00;;;;;;5012975;28;20869;-70
2022/06/30 01:56:57;;;;;;;5.10;3.17;;;18.70;98.00;;;;;;5012641;28;20459;-70
2022/06/30 01:59:24;;;;;;;3.33;2.70;;;18.70;98.00;;;;;;5012542;28;20823;-70
2022/06/30 02:01:52;;;;;;;3.90;2.80;;;18.60;98.00;;;;;;5012973;28;20483;-70
2022/06/30 02:07:04;;;;;;;4.17;2.60;;;18.60;98.00;;;;;;5012746;28;20459;-70
2022/06/30 02:09:31;;;;;;;5.23;3.30;;;18.60;98.00;;;;;;5012541;28;20808;-70
2022/06/30 02:14:44;;;;;;;4.00;2.70;;;18.40;98.00;;;;;;5013035;28;20471;-70
2022/06/30 02:17:11;;;;;;;4.80;3.10;;;18.30;98.00;;;;;;5012469;28;20472;-70
2022/06/30 02:19:38;;;;;;;5.13;2.80;;;18.30;98.00;;;;;;5012476;28;20922;-70
2022/06/30 02:22:06;;;;;;;4.40;2.40;;;18.30;98.00;;;;;;5011863;28;20474;-70
2022/06/30 02:24:33;;;;;;;4.67;3.33;;;18.30;98.00;;;;;;5012506;28;20463;-70
2022/06/30 02:27:02;;;;;;;4.20;2.53;;;18.20;98.00;;;;;;5012838;28;20458;-70
2022/06/30 02:29:30;;;;;;;6.03;2.90;;;18.20;98.00;;;;;;5012410;28;20495;-70
2022/06/30 02:31:57;;;;;;;4.03;2.70;;;18.20;98.00;;;;;;5012409;28;20466;-70
2022/06/30 02:34:24;;;;;;;3.33;2.57;;;18.20;98.00;;;;;;5012213;28;21016;-70
2022/06/30 02:36:52;;;;;;;4.50;2.40;;;18.30;98.00;;;;;;5012413;28;20547;-70
2022/06/30 02:39:19;;;;;;;3.97;2.60;;;18.40;98.00;;;;;;4994477;28;20467;-70
2022/06/30 02:41:46;;;;;;;3.70;2.20;;;18.30;98.00;;;;;;5012183;28;20510;-70
2022/06/30 02:44:15;;;;;;;4.80;2.70;;;18.30;98.00;;;;;;5012005;28;20466;-70
2022/06/30 02:46:51;;;;;;;5.10;2.87;;;18.20;98.00;;;;;;5012018;28;20463;-70
2022/06/30 02:49:19;;;;;;;4.17;2.63;;;18.20;98.00;;;;;;5011978;28;20547;-70
2022/06/30 02:51:46;;;;;;;4.67;3.13;;;18.10;98.00;;;;;;5011874;28;20495;-70
2022/06/30 02:54:13;;;;;;;4.83;2.70;;;18.10;98.00;;;;;;5011830;28;21053;-70
2022/06/30 02:56:42;;;;;;;4.93;3.20;;;18.10;98.00;;;;;;5011878;28;20527;-70
2022/06/30 02:59:09;;;;;;;3.40;2.73;;;18.20;98.00;;;;;;5011941;28;20467;-70
2022/06/30 03:01:38;;;;;;;5.63;3.20;;;18.30;98.00;;;;;;5011828;28;20451;-70
2022/06/30 03:04:05;;;;;;;4.27;3.00;;;18.20;98.00;;;;;;5011790;28;20943;-70
2022/06/30 03:06:34;;;;;;;4.17;2.70;;;18.20;98.00;;;;;;5011922;28;20474;-70
2022/06/30 03:09:02;;;;;;;3.37;2.30;;;18.10;98.00;;;;;;5011843;28;20958;-70
2022/06/30 03:11:31;;;;;;;6.93;3.10;;;18.10;98.00;;;;;;5011915;28;20789;-70
2022/06/30 03:13:58;;;;;;;9.10;3.30;;;18.20;98.00;;;;;;5011889;28;20487;-70
2022/06/30 03:16:25;;;;;;;5.17;2.93;;;18.10;98.00;;;;;;5011697;28;20525;-70
2022/06/30 03:18:54;;;;;;;4.23;2.50;;;18.20;98.00;;;;;;5011932;28;20454;-70
2022/06/30 03:21:21;;;;;;;4.00;2.53;;;18.20;98.00;;;;;;5011817;28;20451;-70
2022/06/30 03:23:50;;;;;;;5.87;2.37;;;18.20;98.00;;;;;;5012205;28;20478;-70
2022/06/30 03:26:17;;;;;;;4.03;2.70;;;18.10;98.00;;;;;;5011672;28;20475;-70
2022/06/30 03:28:44;;;;;;;4.83;2.87;;;18.10;98.00;;;;;;5011923;28;20463;-70
2022/06/30 03:31:12;;;;;;;4.37;2.50;;;18.00;98.00;;;;;;5012008;28;20466;-70
2022/06/30 03:33:40;;;;;;;3.77;2.33;;;18.10;98.00;;;;;;5014100;28;20495;-70
2022/06/30 03:36:08;;;;;;;4.80;2.97;;;18.10;98.00;;;;;;5015366;28;20455;-70
2022/06/30 03:38:35;;;;;;;4.30;3.33;;;18.20;98.00;;;;;;5015568;28;20471;-70
2022/06/30 03:41:03;;;;;;;4.83;3.23;;;18.20;98.00;;;;;;5015125;28;20459;-70
2022/06/30 03:43:30;;;;;;;4.13;2.67;;;18.20;98.00;;;;;;5015056;28;20451;-70
2022/06/30 03:45:57;;;;;;;5.80;3.00;;;18.30;98.00;;;;;;5014964;28;21141;-70
2022/06/30 03:48:24;;;;;;;3.90;2.77;;;18.20;98.00;;;;;;5014863;28;20459;-70
2022/06/30 03:50:52;;;;;;;3.00;2.40;;;18.20;98.00;;;;;;5015042;28;21168;-70
2022/06/30 03:53:20;;;;;;;5.37;3.07;;;18.20;98.00;;;;;;4997270;28;20479;-70
2022/06/30 03:55:48;;;;;;;4.77;3.03;;;18.10;98.00;;;;;;5014911;28;20471;-70
2022/06/30 03:58:15;;;;;;;3.00;2.40;;;18.00;98.00;;;;;;5014798;28;20973;-70
2022/06/30 04:00:42;;;;;;;5.00;2.73;;;18.00;98.00;;;;;;5014910;28;20471;-70
2022/06/30 04:03:09;;;;;;;5.07;2.67;;;18.00;98.00;;;;;;4997284;28;20482;-70
2022/06/30 04:05:38;;;;;;;5.20;3.07;;;18.00;98.00;;;;;;4997331;28;20930;-70
2022/06/30 04:08:05;;;;;;;3.73;2.70;;;18.10;98.00;;;;;;5014725;28;20456;-70
2022/06/30 04:10:34;;;;;;;3.97;2.67;;;18.20;98.00;;;;;;5014619;28;21025;-70
2022/06/30 04:13:02;;;;;;;3.93;2.70;;;18.30;98.00;;;;;;5014638;28;20463;-70
2022/06/30 04:15:30;;;;;;;4.57;3.10;;;18.30;98.00;;;;;;5014744;28;20455;-70
2022/06/30 04:17:57;;;;;;;4.87;3.07;;;18.30;98.00;;;;;;5014851;28;20455;-70
2022/06/30 04:20:24;;;;;;;5.87;2.70;;;18.30;98.00;;;;;;5014723;28;20459;-70
2022/06/30 04:22:53;;;;;;;5.10;2.80;;;18.20;98.00;;;;;;5014606;28;20463;-70
2022/06/30 04:25:23;;;;;;;4.20;2.83;;;18.10;98.00;;;;;;5014419;28;20950;-70
2022/06/30 04:27:53;;;;;;;4.40;3.20;;;18.00;98.00;;;;;;4997638;28;20463;-70
2022/06/30 04:33:02;;;;;;;4.67;2.63;;;18.00;98.00;;;;;;5011744;28;20456;-70
2022/06/30 04:35:29;;;;;;;3.50;2.53;;;18.10;98.00;;;;;;5014600;28;20459;-70
2022/06/30 04:37:58;;;;;;;4.70;2.90;;;18.10;98.00;;;;;;5014402;28;20462;-70
2022/06/30 04:43:11;;;;;;;5.63;3.43;;;18.30;98.00;;;;;;5013926;28;20447;-70
2022/06/30 04:45:39;;;;;;;2.77;2.27;;;18.30;98.00;;;;;;5013471;28;20463;-70
2022/06/30 04:48:07;;;;;;;3.87;2.93;;;18.30;98.00;;;;;;5013840;28;20470;-70
2022/06/30 04:50:34;;;;;;;5.47;2.87;;;18.40;98.00;;;;;;5013932;28;20464;-70
2022/06/30 04:53:01;;;;;;;4.30;2.80;;;18.70;98.00;;;;;;5013981;28;20951;-70
2022/06/30 04:55:28;;;;;;;4.57;2.67;;;18.80;98.00;;;;;;5013890;28;20469;-70
2022/06/30 04:57:55;;;;;;;5.50;3.10;;;19.10;98.00;;;;;;5013693;28;20472;-70
2022/06/30 05:00:24;;;;;;;4.07;2.57;;;19.20;98.00;;;;;;5013439;28;20454;-70
2022/06/30 05:02:51;;;;;;;5.23;3.50;;;19.30;98.00;;;;;;5013588;28;20993;-70
2022/06/30 05:05:18;;;;;;;4.80;3.10;;;19.40;98.00;;;;;;5013330;28;20459;-70
2022/06/30 05:07:46;;;;;;;6.90;3.73;;;19.50;98.00;;;;;;5013737;28;20471;-70
2022/06/30 05:10:13;;;;;;;3.20;2.47;;;19.40;98.00;;;;;;5013597;28;20841;-70
2022/06/30 05:12:40;;;;;;;4.00;2.90;;;19.10;98.00;;;;;;5013466;28;20463;-70
2022/06/30 05:15:07;;;;;;;4.60;2.90;;;19.10;98.00;;;;;;5013311;28;20499;-70
2022/06/30 05:17:36;;;;;;;4.40;2.47;;;19.10;98.00;;;;;;5013749;28;20950;-70
2022/06/30 05:20:04;;;;;;;5.10;3.13;;;19.10;98.00;;;;;;5013459;28;21088;-70
2022/06/30 05:22:31;;;;;;;4.27;2.90;;;19.20;98.00;;;;;;5013330;28;20474;-70
2022/06/30 05:27:46;;;;;;;4.30;2.50;;;19.30;98.00;;;;;;5013344;28;20518;-70
2022/06/30 05:30:13;;;;;;;4.40;3.20;;;19.30;98.00;;;;;;5013491;28;20467;-70
2022/06/30 05:32:42;;;;;;;5.13;3.03;;;19.30;98.00;;;;;;5013348;28;20956;-70
2022/06/30 05:35:10;;;;;;;4.80;2.80;;;19.40;98.00;;;;;;5013398;28;20488;-70
2022/06/30 05:37:39;;;;;;;4.60;3.20;;;19.50;98.00;;;;;;5013399;28;20954;-70
2022/06/30 05:40:08;;;;;;;4.00;2.73;;;19.60;98.00;;;;;;5012924;28;20471;-70
2022/06/30 05:42:35;;;;;;;4.90;3.03;;;19.70;98.00;;;;;;5013305;28;20481;-70
2022/06/30 05:45:04;;;;;;;3.90;2.50;;;19.90;98.00;;;;;;5012934;28;20800;-70
2022/06/30 05:47:32;;;;;;;6.40;3.60;;;20.10;98.00;;;;;;5012970;28;20793;-70
2022/06/30 05:50:00;;;;;;;5.97;3.03;;;20.10;98.00;;;;;;5012778;28;20475;-70
2022/06/30 05:52:29;;;;;;;4.87;3.20;;;20.20;98.00;;;;;;5012628;28;20478;-70
2022/06/30 05:54:57;;;;;;;5.40;3.73;;;20.30;98.00;;;;;;5012805;28;20490;-70
2022/06/30 05:57:25;;;;;;;5.03;3.80;;;20.30;98.00;;;;;;5012404;28;20495;-70
2022/06/30 05:59:53;;;;;;;4.67;3.33;;;20.60;98.00;;;;;;5012067;28;20478;-70
2022/06/30 06:02:20;;;;;;;5.70;3.83;;;20.70;98.00;;;;;;5012476;28;20470;-70
2022/06/30 06:04:48;;;;;;;7.80;2.80;;;20.60;98.00;;;;;;5012722;28;20779;-70
2022/06/30 06:07:16;;;;;;;8.87;3.60;;;20.60;98.00;;;;;;5012523;28;20459;-70
2022/06/30 06:09:44;;;;;;;4.97;3.43;;;20.60;98.00;;;;;;5012488;28;20471;-70
2022/06/30 06:12:12;;;;;;;4.90;3.00;;;20.70;98.00;;;;;;5012456;28;20467;-69
2022/06/30 06:14:39;;;;;;;4.60;3.23;;;20.90;98.00;;;;;;4995069;28;20492;-69
2022/06/30 06:17:16;;;;;;;4.77;3.00;;;21.00;98.00;;;;;;5012552;28;20482;-69
2022/06/30 06:19:43;;;;;;;6.03;3.67;;;21.00;98.00;;;;;;4996151;28;20470;-70
2022/06/30 06:22:10;;;;;;;5.63;3.80;;;21.10;98.00;;;;;;4994984;28;20470;-70
2022/06/30 06:24:39;;;;;;;4.20;2.73;;;21.20;98.00;;;;;;5012517;28;20455;-70
2022/06/30 06:27:06;;;;;;;3.00;2.73;;;21.30;98.00;;;;;;5012278;28;20460;-68
2022/06/30 06:29:33;;;;;;;4.23;2.90;;;21.60;98.00;;;;;;5012351;28;20463;-69
2022/06/30 06:32:01;;;;;;;8.20;2.83;;;21.90;98.00;;;;;;5012276;28;20644;-68
2022/06/30 06:34:31;;;;;;;6.30;3.17;;;22.30;98.00;;;;;;5012459;28;20494;-69
2022/06/30 06:36:58;;;;;;;5.70;3.50;;;22.50;98.00;;;;;;5012481;28;20529;-69
2022/06/30 06:39:25;;;;;;;5.47;3.00;;;22.50;98.00;;;;;;5012523;28;20859;-69
2022/06/30 06:41:54;;;;;;;7.43;4.00;;;22.70;98.00;;;;;;5012068;28;20539;-68
2022/06/30 06:44:21;;;;;;;5.90;3.70;;;22.80;98.00;;;;;;5012098;28;20957;-68
2022/06/30 06:46:48;;;;;;;6.80;3.50;;;23.00;98.00;;;;;;5012128;28;20467;-69
2022/06/30 06:49:15;;;;;;;4.27;3.00;;;23.20;98.00;;;;;;4994680;28;20460;-69
2022/06/30 06:51:42;;;;;;;6.00;3.20;;;23.40;98.00;;;;;;5011825;28;20944;-68
2022/06/30 06:54:09;;;;;;;4.07;2.77;;;23.60;98.00;;;;;;5012060;28;20511;-69
2022/06/30 06:56:37;;;;;;;6.47;3.53;;;23.70;98.00;;;;;;4994455;28;20479;-69
2022/06/30 06:59:05;;;;;;;5.60;3.53;;;23.80;98.00;;;;;;5011723;28;20459;-68
2022/06/30 07:01:33;;;;;;;6.03;3.50;;;23.80;98.00;;;;;;5011980;28;20955;-69
2022/06/30 07:04:00;;;;;;;5.37;3.43;;;24.00;98.00;;;;;;5011967;28;20463;-69
2022/06/30 07:06:27;;;;;;;5.07;3.30;;;24.00;98.00;;;;;;5011775;28;20459;-69
2022/06/30 07:08:54;;;;;;;5.87;3.37;;;24.10;98.00;;;;;;5005792;28;20488;-69
2022/06/30 07:11:23;;;;;;;7.23;3.80;;;24.10;98.00;;;;;;5004566;28;20549;-69
2022/06/30 07:13:50;;;;;;;5.07;3.17;;;24.10;98.00;;;;;;5012833;28;20467;-69
2022/06/30 07:16:18;;;;;;;4.93;3.30;;;24.20;98.00;;;;;;5012989;28;20463;-69
2022/06/30 07:18:46;;;;;;;4.20;3.10;;;24.20;98.00;;;;;;5005005;28;20459;-69
2022/06/30 07:21:14;;;;;;;4.40;3.03;;;24.30;98.00;;;;;;4995425;28;20455;-72
2022/06/30 07:23:42;;;;;;;5.17;3.60;;;24.30;98.00;;;;;;5012827;28;20536;-72
2022/06/30 07:26:11;;;;;;;6.43;3.40;;;24.40;98.00;;;;;;5012902;28;20495;-72
2022/06/30 07:28:39;;;;;;;8.77;4.13;;;24.40;98.00;;;;;;5012762;28;20459;-71
2022/06/30 07:31:07;;;;;;;7.67;4.47;;;24.50;98.00;;;;;;5015134;28;20455;-71
2022/06/30 07:33:36;;;;;;;5.10;3.30;;;24.50;98.00;;;;;;4998292;28;20455;-71
2022/06/30 07:36:04;;;;;;;5.47;3.67;;;24.50;98.00;;;;;;5014855;28;20487;-71
2022/06/30 07:38:40;;;;;;;6.53;3.70;;;24.60;98.00;;;;;;4997641;28;20467;-71
2022/06/30 07:41:07;;;;;;;6.33;3.53;;;24.70;98.00;;;;;;5015413;28;20459;-71
2022/06/30 07:43:36;;;;;;;5.80;3.90;;;24.70;98.00;;;;;;5015221;28;20455;-71
2022/06/30 07:46:04;;;;;;;8.50;3.90;;;24.70;98.00;;;;;;4997582;28;20464;-71
2022/06/30 07:48:31;;;;;;;5.77;3.77;;;24.70;98.00;;;;;;5014967;28;20953;-71
2022/06/30 07:51:00;;;;;;;5.00;3.47;;;24.80;98.00;;;;;;5014777;28;20459;-71
2022/06/30 07:53:27;;;;;;;4.77;3.60;;;24.80;98.00;;;;;;5014299;28;20454;-71
2022/06/30 07:55:56;;;;;;;7.40;4.67;;;24.90;98.00;;;;;;5014249;28;20483;-71
2022/06/30 07:58:23;;;;;;;5.03;3.50;;;25.00;98.00;;;;;;5014293;28;20471;-71
2022/06/30 08:00:50;;;;;;;5.43;3.53;;;25.00;98.00;;;;;;4996904;28;20451;-71
2022/06/30 08:03:17;;;;;;;5.00;3.40;;;25.10;98.00;;;;;;4996351;28;20977;-71
2022/06/30 08:05:44;;;;;;;4.03;2.77;;;25.30;98.00;;;;;;5014344;28;20463;-71
2022/06/30 08:08:13;;;;;;;4.30;3.00;;;25.50;98.00;;;;;;5014067;28;20459;-72
2022/06/30 08:10:40;;;;;;;5.20;3.23;;;25.70;98.00;;;;;;5014333;28;20460;-71
2022/06/30 08:13:08;;;;;;;5.43;3.57;;;25.90;98.00;;;;;;4996389;28;20463;-71
2022/06/30 08:15:35;;;;;;;5.63;3.03;;;26.00;98.00;;;;;;5013857;28;20527;-70
2022/06/30 08:18:04;;;;;;;4.60;3.20;;;26.10;98.00;;;;;;4996711;28;20593;-71
2022/06/30 08:20:31;;;;;;;4.20;3.07;;;26.20;98.00;;;;;;5012521;28;20467;-71
2022/06/30 08:23:01;;;;;;;6.00;4.13;;;26.30;98.00;;;;;;5013794;28;20464;-71
2022/06/30 08:25:33;;;;;;;5.07;3.70;;;26.40;98.00;;;;;;5013829;28;20530;-71
2022/06/30 08:28:00;;;;;;;6.63;3.83;;;26.50;98.00;;;;;;5013895;28;21041;-71
2022/06/30 08:30:27;;;;;;;5.80;3.60;;;26.70;98.00;;;;;;5013663;28;20452;-70
2022/06/30 08:32:54;;;;;;;5.27;3.80;;;26.90;98.00;;;;;;5013757;28;20460;-71
2022/06/30 08:35:21;;;;;;;4.70;3.30;;;26.90;98.00;;;;;;5013825;28;21016;-71
2022/06/30 08:37:48;;;;;;;5.30;3.90;;;27.00;98.00;;;;;;5013211;28;20970;-71
2022/06/30 08:43:04;;;;;;;5.03;3.20;;;26.80;98.00;;;;;;4999204;28;20526;-71
2022/06/30 08:45:32;;;;;;;4.93;3.20;;;26.80;98.00;;;;;;5013564;28;20460;-72
2022/06/30 08:47:59;;;;;;;3.60;2.90;;;26.80;98.00;;;;;;4995826;28;20844;-71
2022/06/30 08:50:26;;;;;;;4.50;2.80;;;27.00;98.00;;;;;;5013269;28;20456;-71
2022/06/30 08:52:54;;;;;;;4.87;2.93;;;27.10;96.70;;;;;;5013319;28;20467;-71
2022/06/30 08:55:25;;;;;;;4.80;2.90;;;27.20;95.40;;;;;;5013196;28;20483;-71
2022/06/30 08:57:56;;;;;;;8.63;3.10;;;27.50;96.70;;;;;;5012864;28;20460;-71
2022/06/30 09:00:25;;;;;;;8.03;3.50;;;27.80;97.10;;;;;;5013247;28;20598;-71
2022/06/30 09:02:53;;;;;;;4.87;3.10;;;28.00;96.70;;;;;;5013092;28;20879;-71
2022/06/30 09:05:20;;;;;;;4.10;3.10;;;28.20;95.20;;;;;;4995921;28;20455;-71
2022/06/30 09:07:47;;;;;;;6.60;3.10;;;28.30;96.10;;;;;;5013134;28;20476;-71
2022/06/30 09:10:14;;;;;;;4.50;2.57;;;28.50;94.90;;;;;;5012742;28;20968;-71
2022/06/30 09:12:56;;;;;;;4.47;2.87;;;28.70;95.00;;;;;;4995376;28;20992;-71
2022/06/30 09:15:23;;;;;;;6.40;2.97;;;28.90;91.30;;;;;;5012844;28;20492;-71
2022/06/30 09:17:52;;;;;;;3.90;3.13;;;29.00;92.60;;;;;;5012667;28;20464;-71
2022/06/30 09:20:20;;;;;;;4.00;3.00;;;29.20;92.00;;;;;;5012726;28;20455;-71
2022/06/30 09:22:47;;;;;;;4.70;3.20;;;29.10;90.20;;;;;;5012463;28;20981;-71
2022/06/30 09:25:18;;;;;;;4.43;3.00;;;29.00;89.30;;;;;;5012548;28;20946;-71
2022/06/30 09:27:47;;;;;;;7.10;3.20;;;29.00;91.80;;;;;;4995372;28;20554;-71
2022/06/30 09:30:18;;;;;;;5.27;3.47;;;29.20;93.40;;;;;;5012354;28;20452;-71
2022/06/30 09:32:52;;;;;;;3.97;2.87;;;29.30;94.30;;;;;;5012218;28;20467;-71
2022/06/30 09:35:21;;;;;;;6.00;3.63;;;29.30;90.80;;;;;;5012107;28;20482;-71
2022/06/30 09:37:59;;;;;;;4.47;3.17;;;29.20;92.20;;;;;;5012486;28;20460;-71
2022/06/30 09:40:30;;;;;;;4.70;3.07;;;29.30;91.80;;;;;;5012644;28;20471;-71
2022/06/30 09:42:58;;;;;;;4.47;3.03;;;29.50;91.80;;;;;;5012596;28;20545;-71
2022/06/30 09:45:37;;;;;;;6.17;3.40;;;29.60;93.40;;;;;;5012334;28;20459;-71
2022/06/30 09:48:07;;;;;;;4.00;2.90;;;29.60;90.50;;;;;;5012141;28;20463;-71
2022/06/30 09:50:34;;;;;;;4.10;3.00;;;29.80;91.30;;;;;;4994842;28;20956;-71
2022/06/30 09:53:08;;;;;;;5.27;2.97;;;29.90;91.40;;;;;;5012031;28;20463;-71
2022/06/30 09:55:40;;;;;;;6.03;3.23;;;30.10;90.20;;;;;;5012129;28;21028;-71
2022/06/30 09:58:08;;;;;;;4.47;3.30;;;30.20;88.90;;;;;;5011848;28;20770;-72
2022/06/30 10:00:53;;;;;;;4.80;3.40;;;30.30;89.80;;;;;;5012146;28;20954;-71
2022/06/30 10:03:22;;;;;;;4.63;3.20;;;30.40;86.50;;;;;;4994690;28;20452;-71
2022/06/30 10:05:51;;;;;;;4.07;2.87;;;30.60;89.90;;;;;;5012013;28;20455;-72
2022/06/30 10:08:20;;;;;;;6.03;3.27;;;30.60;88.50;;;;;;4994300;28;20472;-71
2022/06/30 10:10:47;;;;;;;5.43;3.27;;;30.50;89.20;;;;;;5011792;28;20455;-71
2022/06/30 10:13:16;;;;;;;4.93;3.27;;;30.70;88.00;;;;;;5011663;28;20950;-72
2022/06/30 10:15:48;;;;;;;11.23;3.40;;;30.90;88.50;;;;;;4994522;28;21096;-72
2022/06/30 10:18:17;;;;;;;5.03;2.93;;;30.70;89.10;;;;;;5011670;28;20534;-72
2022/06/30 10:20:47;;;;;;;4.30;2.90;;;30.70;88.10;;;;;;5011738;28;20478;-71
2022/06/30 10:23:14;;;;;;;5.33;3.50;;;30.60;86.80;;;;;;5011482;28;20976;-72
2022/06/30 10:25:43;;;;;;;3.80;2.73;;;30.70;89.40;;;;;;4978291;28;20888;-72
2022/06/30 10:28:11;;;;;;;7.10;3.20;;;30.80;89.40;;;;;;5011511;28;20464;-71
2022/06/30 10:30:48;;;;;;;4.10;3.10;;;31.00;88.50;;;;;;4994540;28;20467;-71
2022/06/30 10:33:31;;;;;;;3.67;2.93;;;31.20;87.00;;;;;;5011462;28;20513;-72
2022/06/30 10:36:08;;;;;;;4.60;3.13;;;31.40;86.40;;;;;;4993773;28;20852;-72
2022/06/30 10:38:42;;;;;;;5.10;3.40;;;31.50;85.10;;;;;;5011843;28;20451;-71
2022/06/30 10:41:11;;;;;;;5.53;3.10;;;31.30;83.30;;;;;;4994319;28;20463;-71
2022/06/30 10:44:16;;;;;;;4.50;3.03;;;31.10;87.00;;;;;;4993974;28;20456;-72
2022/06/30 10:47:10;;;;;;;4.83;3.00;;;31.00;85.50;;;;;;5011584;28;20475;-72
2022/06/30 10:49:57;;;;;;;5.50;3.20;;;30.70;85.10;;;;;;5005247;28;20511;-72
2022/06/30 10:52:28;;;;;;;4.70;3.27;;;30.50;84.60;;;;;;5010937;28;20499;-71
2022/06/30 10:55:06;;;;;;;4.07;2.97;;;30.70;83.50;;;;;;5011303;28;20951;-71
2022/06/30 10:58:01;;;;;;;11.50;3.30;;;31.00;83.80;;;;;;5011406;28;20459;-72
2022/06/30 11:01:02;;;;;;;4.20;2.97;;;31.20;85.10;;;;;;4997910;28;20830;-71
2022/06/30 11:04:03;;;;;;;6.63;3.00;;;31.60;85.20;;;;;;4934442;29;20496;-72
2022/06/30 11:07:02;;;;;;;5.37;3.30;;;31.90;84.90;;;;;;5011507;28;20456;-72
2022/06/30 11:10:06;;;;;;;5.73;3.07;;;32.10;85.00;;;;;;5006007;28;20483;-71
2022/06/30 11:13:02;;;;;;;4.60;3.10;;;32.20;82.50;;;;;;5011143;28;20486;-72
2022/06/30 11:15:55;;;;;;;4.23;2.97;;;32.30;83.20;;;;;;5011008;28;20510;-72
2022/06/30 11:18:23;;;;;;;4.23;3.20;;;32.50;81.20;;;;;;4993734;28;20460;-71
2022/06/30 11:20:53;;;;;;;4.40;3.07;;;32.70;80.60;;;;;;4993917;28;20460;-72
2022/06/30 11:23:22;;;;;;;5.40;3.07;;;32.90;82.00;;;;;;5010950;28;20464;-72
2022/06/30 11:28:40;;;;;;;7.13;2.93;;;32.90;80.50;;;;;;5011095;28;20525;-72
2022/06/30 11:31:22;;;;;;;5.03;3.30;;;33.10;78.80;;;;;;5011049;28;20460;-72
2022/06/30 11:33:56;;;;;;;4.17;3.10;;;33.20;79.00;;;;;;5010983;28;20953;-73
2022/06/30 11:36:23;;;;;;;5.47;3.50;;;33.40;77.70;;;;;;5011033;28;21032;-73
2022/06/30 11:38:57;;;;;;;3.83;3.20;;;33.60;77.40;;;;;;5010995;28;20521;-72
2022/06/30 11:44:14;;;;;;;4.63;2.83;;;34.00;76.00;;;;;;4996693;28;20455;-72
2022/06/30 11:46:55;;;;;;;3.80;2.87;;;34.00;76.40;;;;;;5010985;28;20828;-72
2022/06/30 11:49:23;;;;;;;4.17;2.80;;;34.10;75.80;;;;;;5011126;28;20455;-72
2022/06/30 11:51:51;;;;;;;4.00;3.00;;;34.20;78.20;;;;;;5011134;28;20452;-72
2022/06/30 11:54:22;;;;;;;4.83;3.20;;;33.90;75.10;;;;;;4995098;28;20467;-72
2022/06/30 11:56:52;;;;;;;4.80;2.80;;;33.40;75.00;;;;;;5014394;28;20483;-72
2022/06/30 11:59:21;;;;;;;4.10;3.30;;;33.40;77.00;;;;;;5014007;28;20470;-72
2022/06/30 12:02:11;;;;;;;6.23;3.00;;;33.60;74.20;;;;;;5014188;28;20455;-71
2022/06/30 12:04:42;;;;;;;3.73;2.73;;;33.80;75.70;;;;;;5014374;28;20463;-72
2022/06/30 12:07:10;;;;;;;3.43;2.63;;;34.20;74.30;;;;;;5014281;28;20463;-73
2022/06/30 12:09:37;;;;;;;4.77;2.87;;;34.50;74.10;;;;;;5014242;28;20475;-73
2022/06/30 12:12:05;;;;;;;4.20;3.10;;;34.80;72.80;;;;;;5013913;28;20474;-72
2022/06/30 12:14:36;;;;;;;7.30;2.97;;;35.10;72.10;;;;;;5013965;28;20459;-72
2022/06/30 12:17:06;;;;;;;4.83;3.20;;;35.30;72.90;;;;;;5013772;28;20491;-73
2022/06/30 12:19:33;;;;;;;3.63;2.60;;;35.50;73.90;;;;;;5013953;28;20534;-72
2022/06/30 12:22:02;;;;;;;5.03;3.23;;;35.80;73.70;;;;;;5014035;28;20455;-72
2022/06/30 12:24:29;;;;;;;4.80;2.90;;;35.90;71.80;;;;;;5014064;28;20470;-73
2022/06/30 12:26:58;;;;;;;4.10;3.00;;;36.00;72.10;;;;;;5013821;28;20896;-72
2022/06/30 12:29:27;;;;;;;4.90;2.90;;;36.00;70.50;;;;;;5013595;28;20455;-71
2022/06/30 12:32:00;;;;;;;3.77;2.90;;;35.90;70.90;;;;;;4996563;28;20463;-72
2022/06/30 12:34:28;;;;;;;4.63;2.83;;;35.80;68.60;;;;;;4996034;28;20467;-72
2022/06/30 12:36:59;;;;;;;4.20;3.07;;;35.70;72.10;;;;;;5013645;28;21029;-73
2022/06/30 12:39:27;;;;;;;4.20;2.93;;;35.20;70.80;;;;;;5013519;28;20497;-72
2022/06/30 12:42:02;;;;;;;3.43;2.80;;;34.70;72.00;;;;;;5013696;28;20467;-72
2022/06/30 12:44:34;;;;;;;3.20;2.60;;;34.40;72.50;;;;;;5013612;28;20549;-72
2022/06/30 12:47:10;;;;;;;4.97;3.20;;;34.00;73.90;;;;;;5013611;28;20451;-72
2022/06/30 12:49:38;;;;;;;4.17;3.00;;;34.00;73.60;;;;;;4979788;28;20467;-72
2022/06/30 12:52:15;;;;;;;3.90;2.80;;;34.10;74.10;;;;;;5013174;28;20986;-73
2022/06/30 12:54:54;;;;;;;5.00;3.03;;;34.60;72.40;;;;;;5013429;28;20470;-72
2022/06/30 12:57:22;;;;;;;4.80;3.03;;;35.00;70.70;;;;;;5012900;28;20514;-73
2022/06/30 12:59:52;;;;;;;5.50;3.03;;;35.30;72.50;;;;;;5013087;28;20467;-72
2022/06/30 13:02:22;;;;;;;4.03;2.83;;;35.70;74.00;;;;;;5012786;28;20479;-73
2022/06/30 13:04:52;;;;;;;4.93;3.10;;;36.00;72.50;;;;;;5012994;28;20459;-73
2022/06/30 13:07:19;;;;;;;3.97;3.00;;;36.30;70.80;;;;;;5012275;28;20460;-72
2022/06/30 13:09:49;;;;;;;5.13;2.80;;;36.00;69.80;;;;;;5012904;28;20950;-72
2022/06/30 13:12:16;;;;;;;4.10;3.10;;;36.10;72.40;;;;;;5013043;28;20950;-73
2022/06/30 13:14:44;;;;;;;3.90;2.90;;;36.50;70.20;;;;;;4995595;28;20958;-72
2022/06/30 13:17:12;;;;;;;4.30;3.10;;;36.80;68.50;;;;;;5012604;28;20836;-73
2022/06/30 13:19:41;;;;;;;3.60;3.00;;;37.00;71.00;;;;;;5012666;28;20981;-72
2022/06/30 13:22:08;;;;;;;4.20;2.90;;;37.10;68.20;;;;;;5012728;28;20471;-72
2022/06/30 13:24:36;;;;;;;5.67;3.13;;;37.30;67.60;;;;;;5012652;28;20448;-72
2022/06/30 13:27:04;;;;;;;4.80;3.30;;;37.40;66.60;;;;;;4995176;28;20459;-72